Time;durP1;ratioP1;P1;durP2;ratioP2;P2;SDS_P1;SDS_P2;PMS_P1;PMS_P2;Temp;Humidity;BMP_temperature;BMP_pressure;BME280_temperature;BME280_humidity;BME280_pressure;Samples;Min_cycle;Max_cycle;Signal;HPM_P1;HPM_P2
2023/11/23 00:00:08;;;;;;;7.22;3.42;;;5.60;99.90;;;4.82;100.00;101266.63;5023271;28;20046;-78
2023/11/23 00:02:35;;;;;;;9.30;3.28;;;5.60;99.90;;;4.80;100.00;101260.53;5016610;28;20548;-77
2023/11/23 00:05:00;;;;;;;8.27;3.92;;;5.60;99.90;;;4.86;100.00;101256.34;5015963;28;20549;-77
2023/11/23 00:07:26;;;;;;;10.13;4.25;;;5.60;99.90;;;4.86;100.00;101251.75;5014401;28;20029;-78
2023/11/23 00:09:52;;;;;;;8.90;3.90;;;5.70;99.90;;;4.91;100.00;101251.28;5012902;28;20026;-78
2023/11/23 00:12:18;;;;;;;7.53;3.97;;;5.70;99.90;;;4.95;100.00;101257.22;5012645;28;20490;-78
2023/11/23 00:14:44;;;;;;;8.90;4.13;;;5.70;99.90;;;4.94;100.00;101245.53;5012872;28;20029;-77
2023/11/23 00:17:10;;;;;;;7.50;4.30;;;5.70;99.90;;;4.94;100.00;101242.84;5012665;28;20789;-78
2023/11/23 00:19:35;;;;;;;8.48;4.43;;;5.70;99.90;;;4.88;100.00;101238.09;5012510;28;20049;-77
2023/11/23 00:22:02;;;;;;;8.45;4.28;;;5.70;99.90;;;4.93;100.00;101226.81;5012296;28;20029;-77
2023/11/23 00:24:27;;;;;;;10.88;5.35;;;5.70;99.90;;;4.89;100.00;101229.81;5016112;28;20049;-77
2023/11/23 00:26:53;;;;;;;11.10;4.50;;;5.80;99.90;;;4.93;100.00;101230.34;5016207;28;20444;-77
2023/11/23 00:29:20;;;;;;;8.48;4.72;;;5.80;99.90;;;4.96;100.00;101215.66;5016496;28;20390;-77
2023/11/23 00:31:46;;;;;;;10.90;5.30;;;5.80;99.90;;;4.97;100.00;101220.03;5014968;28;20457;-77
2023/11/23 00:34:12;;;;;;;10.60;5.63;;;5.80;99.90;;;4.93;100.00;101216.81;5019027;28;20077;-77
2023/11/23 00:36:38;;;;;;;10.52;5.35;;;5.80;99.90;;;4.98;100.00;101210.91;5016755;28;20041;-78
2023/11/23 00:39:05;;;;;;;12.00;6.20;;;5.80;99.90;;;5.02;100.00;101207.69;5028504;28;20033;-77
2023/11/23 00:41:31;;;;;;;11.82;6.15;;;5.80;99.90;;;5.01;100.00;101206.00;5026618;28;20029;-78
2023/11/23 00:43:57;;;;;;;13.40;5.93;;;5.80;99.90;;;5.07;100.00;101203.66;5007161;28;20085;-78
2023/11/23 00:46:23;;;;;;;11.40;6.22;;;5.90;99.90;;;5.10;100.00;101200.63;5012372;28;20083;-79
2023/11/23 00:48:49;;;;;;;12.77;6.07;;;5.90;99.90;;;5.12;100.00;101194.00;5040115;28;20092;-78
2023/11/23 00:51:16;;;;;;;13.70;6.35;;;5.90;99.90;;;5.11;100.00;101183.38;5014263;28;20032;-77
2023/11/23 00:53:42;;;;;;;12.30;6.45;;;5.90;99.90;;;5.16;100.00;101187.25;5018923;28;20388;-78
2023/11/23 00:56:08;;;;;;;13.10;6.32;;;5.90;99.90;;;5.19;100.00;101175.25;5016241;28;20048;-78
2023/11/23 00:58:33;;;;;;;12.55;6.35;;;5.90;99.90;;;5.16;100.00;101189.13;5019987;28;20037;-77
2023/11/23 01:01:00;;;;;;;14.05;6.22;;;5.90;99.90;;;5.17;100.00;101175.44;5015605;28;20046;-78
2023/11/23 01:03:27;;;;;;;13.90;7.00;;;6.00;99.90;;;5.20;100.00;101168.84;5011736;28;20450;-78
2023/11/23 01:05:53;;;;;;;13.60;6.50;;;6.00;99.90;;;5.25;100.00;101180.00;5011759;28;20501;-78
2023/11/23 01:08:18;;;;;;;15.57;7.10;;;6.00;99.90;;;5.26;100.00;101175.44;5026889;28;20048;-79
2023/11/23 01:10:44;;;;;;;13.38;6.88;;;6.00;99.90;;;5.24;100.00;101172.91;5014839;28;20038;-78
2023/11/23 01:13:12;;;;;;;12.48;7.25;;;6.00;99.90;;;5.25;100.00;101171.03;5022954;28;20138;-79
2023/11/23 01:15:38;;;;;;;17.00;7.57;;;6.00;99.90;;;5.21;100.00;101173.22;5037993;28;20422;-78
2023/11/23 01:18:04;;;;;;;14.40;7.43;;;6.00;99.90;;;5.21;100.00;101167.81;5014139;28;20038;-78
2023/11/23 01:20:29;;;;;;;13.38;7.63;;;6.00;99.90;;;5.18;100.00;101169.03;5012432;28;20486;-77
2023/11/23 01:22:56;;;;;;;17.25;8.10;;;6.00;99.90;;;5.24;100.00;101159.38;5021435;28;20041;-78
2023/11/23 01:25:21;;;;;;;13.93;7.95;;;6.00;99.90;;;5.19;100.00;101145.50;5020241;28;20041;-79
2023/11/23 01:27:47;;;;;;;16.52;8.07;;;6.00;99.90;;;5.26;100.00;101161.91;5039393;28;20074;-77
2023/11/23 01:30:13;;;;;;;14.52;8.32;;;6.00;99.90;;;5.21;100.00;101134.53;5034752;28;20080;-78
2023/11/23 01:32:39;;;;;;;13.68;7.57;;;6.00;99.90;;;5.22;100.00;101128.09;5021107;28;20385;-78
2023/11/23 01:35:06;;;;;;;15.45;7.78;;;6.00;99.90;;;5.25;100.00;101139.41;5018365;28;20037;-78
2023/11/23 01:37:35;;;;;;;15.50;7.55;;;6.00;99.90;;;5.26;100.00;101143.81;5024576;28;20040;-78
2023/11/23 01:40:03;;;;;;;14.27;8.18;;;6.00;99.90;;;5.26;100.00;101146.50;5018316;28;20032;-78
2023/11/23 01:42:29;;;;;;;;;;;6.00;99.90;;;5.31;100.00;101146.88;5022629;28;20441;-77
2023/11/23 01:44:56;;;;;;;17.58;8.05;;;6.00;99.90;;;5.25;100.00;101134.00;5025804;28;19917;-78
2023/11/23 01:47:22;;;;;;;15.68;8.43;;;6.00;99.90;;;5.28;100.00;101128.25;5017800;28;20034;-78
2023/11/23 01:49:51;;;;;;;13.95;8.25;;;6.00;99.90;;;5.26;100.00;101126.75;5022621;28;20478;-78
2023/11/23 01:52:16;;;;;;;15.95;8.57;;;6.00;99.90;;;5.21;100.00;101111.00;5017815;28;20054;-77
2023/11/23 01:54:42;;;;;;;16.20;8.93;;;6.00;99.90;;;5.08;100.00;101108.00;5022937;28;20113;-78
2023/11/23 01:57:08;;;;;;;17.27;8.57;;;6.00;99.90;;;5.15;100.00;101109.00;5022853;28;20122;-78
2023/11/23 01:59:35;;;;;;;15.15;9.20;;;6.00;99.90;;;5.13;100.00;101111.03;5016748;28;20045;-78
2023/11/23 02:02:04;;;;;;;17.08;9.13;;;6.00;99.90;;;5.21;100.00;101113.72;5026935;28;20042;-78
2023/11/23 02:04:31;;;;;;;16.02;8.90;;;6.00;99.90;;;5.18;100.00;101114.06;5024004;28;20042;-78
2023/11/23 02:06:56;;;;;;;16.45;8.80;;;6.00;99.90;;;5.14;100.00;101110.84;5021971;28;20037;-78
2023/11/23 02:09:22;;;;;;;18.48;9.65;;;6.00;99.90;;;5.19;100.00;101094.09;5031340;28;20038;-79
2023/11/23 02:11:49;;;;;;;18.25;9.77;;;6.00;99.90;;;5.19;100.00;101091.41;5016606;28;20045;-78
2023/11/23 02:14:15;;;;;;;18.38;9.68;;;6.00;99.90;;;5.22;100.00;101077.53;5021756;28;20474;-79
2023/11/23 02:16:41;;;;;;;17.40;10.27;;;6.00;99.90;;;5.15;100.00;101081.94;5017906;28;20446;-78
2023/11/23 02:19:07;;;;;;;16.33;9.70;;;6.10;99.90;;;5.29;100.00;101078.53;5027351;28;20052;-79
2023/11/23 02:21:32;;;;;;;18.95;9.63;;;6.00;99.90;;;5.27;100.00;101063.50;5018736;28;20498;-79
2023/11/23 02:23:58;;;;;;;20.83;9.70;;;6.10;99.90;;;5.34;100.00;101075.31;5026727;28;20038;-78
2023/11/23 02:26:24;;;;;;;17.92;10.27;;;6.10;99.90;;;5.42;100.00;101075.28;5042074;28;20096;-78
2023/11/23 02:28:51;;;;;;;18.38;10.55;;;6.20;99.90;;;5.57;100.00;101072.75;5027151;28;20429;-79
2023/11/23 02:31:17;;;;;;;18.60;10.40;;;6.30;99.90;;;5.64;100.00;101061.22;5017702;28;20134;-79
2023/11/23 02:33:42;;;;;;;17.92;10.30;;;6.40;99.90;;;5.81;100.00;101062.84;5023469;28;20034;-79
2023/11/23 02:36:08;;;;;;;20.98;10.38;;;6.60;99.90;;;5.98;100.00;101062.78;5019197;28;20517;-78
2023/11/23 02:38:34;;;;;;;20.02;11.07;;;6.70;99.90;;;6.05;100.00;101085.44;5025089;28;20048;-78
2023/11/23 02:41:00;;;;;;;19.15;10.80;;;6.70;99.90;;;6.14;100.00;101065.44;5018097;28;20025;-78
2023/11/23 02:43:26;;;;;;;18.42;10.38;;;6.80;99.90;;;6.13;100.00;101060.19;5035075;28;20481;-78
2023/11/23 02:45:54;;;;;;;21.27;12.43;;;6.90;99.90;;;6.15;100.00;101060.84;5014753;28;20038;-78
2023/11/23 02:48:20;;;;;;;;;;;6.90;99.90;;;6.24;100.00;101086.06;5014705;28;20038;-77
2023/11/23 02:50:47;;;;;;;19.17;10.98;;;7.00;99.90;;;6.24;100.00;101067.94;5014084;28;19917;-79
2023/11/23 02:53:27;;;;;;;20.50;11.82;;;7.00;99.90;;;6.21;100.00;101065.56;5039330;28;20046;-76
2023/11/23 02:55:54;;;;;;;19.70;11.30;;;7.00;99.90;;;6.22;100.00;101053.69;5039631;28;20034;-77
2023/11/23 02:58:21;;;;;;;20.27;11.18;;;7.00;99.90;;;6.25;100.00;101069.63;5021611;28;20795;-79
2023/11/23 03:00:48;;;;;;;23.15;11.27;;;7.00;99.90;;;6.22;100.00;101058.28;5024060;28;20402;-77
2023/11/23 03:03:14;;;;;;;20.45;11.65;;;7.00;99.90;;;6.21;100.00;101053.91;5030019;28;20029;-77
2023/11/23 03:05:40;;;;;;;22.05;12.55;;;7.00;99.90;;;6.30;100.00;101058.22;5020719;28;20035;-77
2023/11/23 03:08:06;;;;;;;21.60;11.85;;;7.00;99.90;;;6.27;100.00;101070.28;5014334;28;20466;-76
2023/11/23 03:10:35;;;;;;;24.20;13.15;;;7.00;99.90;;;6.28;100.00;101047.59;5020178;28;20038;-76
2023/11/23 03:13:02;;;;;;;20.33;12.13;;;7.00;99.90;;;6.28;100.00;101033.19;5029031;28;20466;-77
2023/11/23 03:15:29;;;;;;;25.35;12.50;;;6.90;99.90;;;6.22;100.00;101015.75;5040089;28;20567;-77
2023/11/23 03:17:55;;;;;;;19.80;12.32;;;7.00;99.90;;;6.25;100.00;101023.56;5034770;28;20073;-77
2023/11/23 03:20:21;;;;;;;24.60;13.45;;;6.90;99.90;;;6.23;100.00;101003.06;5028617;28;20482;-77
2023/11/23 03:22:47;;;;;;;21.27;13.18;;;7.00;99.90;;;6.23;100.00;101024.75;5028400;28;20034;-76
2023/11/23 03:25:13;;;;;;;21.80;12.77;;;7.00;99.90;;;6.27;100.00;101004.41;5017875;28;20033;-76
2023/11/23 03:27:39;;;;;;;23.17;12.73;;;7.00;99.90;;;6.31;100.00;101000.31;5026672;28;20126;-77
2023/11/23 03:30:06;;;;;;;22.55;12.68;;;7.10;99.90;;;6.36;100.00;100997.06;5014743;28;20038;-76
2023/11/23 03:32:35;;;;;;;21.17;12.77;;;7.10;99.90;;;6.36;100.00;100995.19;5013756;28;20054;-77
2023/11/23 03:35:01;;;;;;;21.55;13.05;;;7.10;99.90;;;6.32;100.00;100986.59;5013555;28;20077;-77
2023/11/23 03:37:27;;;;;;;23.05;12.90;;;7.10;99.90;;;6.26;100.00;100970.19;5013149;28;20473;-77
2023/11/23 03:39:57;;;;;;;22.70;13.50;;;7.10;99.90;;;6.21;100.00;100969.91;5035411;28;20049;-79
2023/11/23 03:42:22;;;;;;;23.30;13.95;;;7.00;99.90;;;6.13;100.00;100955.41;5016673;28;20048;-79
2023/11/23 03:44:48;;;;;;;25.45;14.52;;;6.90;99.90;;;6.08;100.00;100946.94;5025066;28;20041;-77
2023/11/23 03:47:14;;;;;;;23.08;14.05;;;6.90;99.90;;;6.06;100.00;100921.06;5019219;28;20095;-79
2023/11/23 03:49:39;;;;;;;25.73;14.45;;;6.80;99.90;;;6.02;100.00;100916.03;5026463;28;20041;-76
2023/11/23 03:52:05;;;;;;;21.65;14.45;;;6.80;99.90;;;6.07;100.00;100911.94;5015017;28;20056;-77
2023/11/23 03:54:31;;;;;;;23.42;14.93;;;6.80;99.90;;;6.14;100.00;100910.16;5017383;28;20029;-78
2023/11/23 03:56:58;;;;;;;24.80;15.25;;;6.80;99.90;;;6.14;100.00;100913.75;5018511;28;20048;-78
2023/11/23 03:59:24;;;;;;;24.77;14.88;;;6.90;99.90;;;6.14;100.00;100885.78;5015727;28;20049;-77
2023/11/23 04:01:50;;;;;;;27.63;16.05;;;6.80;99.90;;;6.10;100.00;100879.91;5015130;28;20481;-78
2023/11/23 04:04:16;;;;;;;28.13;15.95;;;6.80;99.90;;;6.07;100.00;100871.28;5019467;28;20052;-78
2023/11/23 04:06:43;;;;;;;30.13;16.15;;;6.80;99.90;;;6.06;100.00;100859.59;5013224;28;20077;-77
2023/11/23 04:09:09;;;;;;;27.23;16.00;;;6.80;99.90;;;6.04;100.00;100856.22;5018020;28;20068;-79
2023/11/23 04:11:35;;;;;;;28.17;16.67;;;6.70;99.90;;;5.96;100.00;100846.28;5012761;28;20425;-78
2023/11/23 04:14:00;;;;;;;28.48;16.23;;;6.60;99.90;;;5.95;100.00;100835.63;5018606;28;20107;-78
2023/11/23 04:16:26;;;;;;;32.92;17.42;;;6.60;99.90;;;6.00;100.00;100844.91;5025905;28;20029;-78
2023/11/23 04:18:52;;;;;;;30.27;18.48;;;6.70;99.90;;;6.03;100.00;100839.16;5016422;28;20037;-77
2023/11/23 04:21:18;;;;;;;31.38;17.98;;;6.70;99.90;;;6.04;100.00;100830.00;5011446;28;20504;-78
2023/11/23 04:23:43;;;;;;;31.10;17.75;;;6.70;99.90;;;6.07;100.00;100828.78;5015448;28;20040;-78
2023/11/23 04:26:09;;;;;;;29.70;17.65;;;6.80;99.90;;;6.11;100.00;100803.03;5016230;28;20466;-78
2023/11/23 04:28:36;;;;;;;28.92;17.00;;;6.80;99.90;;;6.07;100.00;100792.75;5012213;28;20037;-78
2023/11/23 04:31:03;;;;;;;32.50;18.20;;;6.80;99.90;;;5.98;100.00;100822.59;5012331;28;20156;-77
2023/11/23 04:33:29;;;;;;;30.48;17.75;;;6.70;99.90;;;5.99;100.00;100818.00;5014515;28;20072;-78
2023/11/23 04:35:55;;;;;;;31.55;17.90;;;6.70;99.90;;;5.97;100.00;100793.81;5012505;28;20045;-78
2023/11/23 04:38:21;;;;;;;32.83;18.83;;;6.70;99.90;;;5.94;100.00;100777.09;5016549;28;20034;-79
2023/11/23 04:40:47;;;;;;;35.78;18.73;;;6.70;99.90;;;5.96;100.00;100772.31;5025145;28;20037;-78
2023/11/23 04:43:12;;;;;;;32.53;18.58;;;6.70;99.90;;;5.94;100.00;100758.13;5021124;28;20048;-77
2023/11/23 04:45:38;;;;;;;33.80;19.20;;;6.70;99.90;;;5.90;100.00;100755.78;5012231;28;20107;-78
2023/11/23 04:48:05;;;;;;;35.10;19.75;;;6.70;99.90;;;5.94;100.00;100752.72;5015917;28;20421;-78
2023/11/23 04:50:31;;;;;;;33.60;20.17;;;6.60;99.90;;;5.92;100.00;100725.78;5018239;28;20042;-79
2023/11/23 04:52:57;;;;;;;39.70;21.45;;;6.70;99.90;;;5.90;100.00;100728.72;5022156;28;20123;-78
2023/11/23 04:55:22;;;;;;;39.13;21.40;;;6.70;99.90;;;5.94;100.00;100717.50;5011734;28;20046;-78
2023/11/23 04:57:48;;;;;;;38.67;20.88;;;6.70;99.90;;;5.92;100.00;100697.91;5038553;28;20397;-80
2023/11/23 05:00:15;;;;;;;37.30;20.55;;;6.70;99.90;;;5.94;100.00;100685.84;5022799;28;20168;-79
2023/11/23 05:02:43;;;;;;;37.40;20.35;;;6.70;99.90;;;6.00;100.00;100695.94;5012911;28;20037;-78
2023/11/23 05:05:14;;;;;;;35.60;20.90;;;6.70;99.90;;;5.96;100.00;100672.13;5012027;28;20053;-79
2023/11/23 05:07:40;;;;;;;39.63;20.92;;;6.70;99.90;;;6.00;100.00;100668.88;5011995;28;20125;-79
2023/11/23 05:10:08;;;;;;;38.70;21.15;;;6.70;99.90;;;6.03;100.00;100663.09;5011989;28;20118;-78
2023/11/23 05:12:35;;;;;;;37.15;21.00;;;6.70;99.90;;;6.02;100.00;100645.16;5018826;28;20045;-79
2023/11/23 05:15:01;;;;;;;38.40;21.38;;;6.70;99.90;;;6.06;100.00;100651.03;5017126;28;20100;-78
2023/11/23 05:17:27;;;;;;;38.33;20.35;;;6.70;99.90;;;6.06;100.00;100651.03;5035808;28;20371;-78
2023/11/23 05:19:52;;;;;;;40.65;21.77;;;6.80;99.90;;;6.09;100.00;100639.81;5017545;28;20058;-78
2023/11/23 05:22:18;;;;;;;39.35;21.65;;;6.80;99.90;;;6.10;100.00;100644.25;5016305;28;20045;-78
2023/11/23 05:24:44;;;;;;;35.70;20.05;;;6.80;99.90;;;6.13;100.00;100635.75;5011698;28;20034;-78
2023/11/23 05:27:10;;;;;;;37.05;21.17;;;6.80;99.90;;;6.10;100.00;100630.69;5031167;28;20040;-77
2023/11/23 05:29:36;;;;;;;37.38;21.17;;;6.80;99.90;;;6.15;100.00;100644.53;5016990;28;20107;-78
2023/11/23 05:32:02;;;;;;;35.70;20.92;;;6.90;99.90;;;6.19;100.00;100623.28;5015529;28;20098;-77
2023/11/23 05:34:27;;;;;;;33.95;20.10;;;6.90;99.90;;;6.17;100.00;100634.34;5019657;28;20105;-78
2023/11/23 05:36:53;;;;;;;34.80;19.98;;;6.90;99.90;;;6.18;100.00;100632.44;5016280;28;20053;-77
2023/11/23 05:39:19;;;;;;;34.40;19.90;;;6.90;99.90;;;6.24;100.00;100620.88;5018595;28;20096;-77
2023/11/23 05:41:45;;;;;;;34.58;19.80;;;6.90;99.90;;;6.18;100.00;100592.66;5011209;28;20442;-77
2023/11/23 05:44:11;;;;;;;35.72;20.30;;;7.00;99.90;;;6.29;100.00;100606.75;5013870;28;20044;-77
2023/11/23 05:46:37;;;;;;;37.92;20.08;;;7.00;99.90;;;6.33;100.00;100608.03;5017573;28;20034;-79
2023/11/23 05:49:03;;;;;;;33.08;19.52;;;7.00;99.90;;;6.33;100.00;100603.47;5016240;28;20456;-77
2023/11/23 05:51:28;;;;;;;35.85;19.95;;;7.00;99.90;;;6.36;100.00;100591.41;5020253;28;20026;-78
2023/11/23 05:53:54;;;;;;;36.22;20.75;;;7.10;99.90;;;6.41;100.00;100591.69;5018591;28;20042;-78
2023/11/23 05:56:20;;;;;;;35.58;20.65;;;7.10;99.90;;;6.36;100.00;100572.44;5011818;28;20029;-78
2023/11/23 05:58:46;;;;;;;33.72;20.00;;;7.10;99.90;;;6.42;100.00;100571.69;5015093;28;20125;-77
2023/11/23 06:01:12;;;;;;;32.67;19.80;;;7.10;99.90;;;6.51;100.00;100577.84;5014446;28;20081;-77
2023/11/23 06:03:38;;;;;;;34.63;20.08;;;7.20;99.90;;;6.56;100.00;100574.53;5026896;28;20038;-78
2023/11/23 06:06:06;;;;;;;36.78;20.17;;;7.20;99.90;;;6.55;100.00;100559.31;5011802;28;20041;-77
2023/11/23 06:08:31;;;;;;;;;;;7.30;99.90;;;6.55;100.00;100546.59;5018864;28;20475;-77
2023/11/23 06:10:57;;;;;;;36.45;19.83;;;7.20;99.90;;;6.61;100.00;100553.09;5021508;28;19914;-78
2023/11/23 06:13:24;;;;;;;34.03;20.40;;;7.30;99.90;;;6.66;100.00;100555.25;5018044;28;20045;-78
2023/11/23 06:15:50;;;;;;;34.40;20.75;;;7.30;99.90;;;6.70;100.00;100561.94;5019855;28;20156;-77
2023/11/23 06:18:16;;;;;;;36.90;21.33;;;7.30;99.90;;;6.67;100.00;100555.06;5040733;28;20063;-78
2023/11/23 06:20:42;;;;;;;35.92;21.17;;;7.40;99.90;;;6.66;100.00;100538.97;5024882;28;20054;-78
2023/11/23 06:23:10;;;;;;;34.10;21.08;;;7.40;99.90;;;6.75;100.00;100540.50;5025132;28;20038;-79
2023/11/23 06:25:36;;;;;;;38.03;21.50;;;7.50;99.90;;;6.75;100.00;100532.38;5025469;28;20057;-78
2023/11/23 06:28:02;;;;;;;41.42;21.30;;;7.50;99.90;;;6.75;100.00;100519.66;5045127;28;20038;-77
2023/11/23 06:30:27;;;;;;;36.05;22.63;;;7.50;99.90;;;6.75;100.00;100529.66;5022708;28;20049;-78
2023/11/23 06:32:53;;;;;;;37.45;21.48;;;7.50;99.90;;;6.84;100.00;100523.09;5019408;28;20400;-78
2023/11/23 06:35:19;;;;;;;37.15;21.70;;;7.60;99.90;;;6.85;100.00;100532.06;5015694;28;20087;-78
2023/11/23 06:37:44;;;;;;;36.28;21.90;;;7.60;99.90;;;6.91;100.00;100526.69;5023480;28;20180;-77
2023/11/23 06:40:10;;;;;;;37.00;21.45;;;7.70;99.90;;;6.97;100.00;100525.06;5023257;28;20037;-78
2023/11/23 06:42:36;;;;;;;37.05;21.40;;;7.70;99.90;;;6.98;100.00;100510.47;5024093;28;20103;-79
2023/11/23 06:45:02;;;;;;;36.47;21.50;;;7.70;99.90;;;7.13;100.00;100528.53;5015029;28;20422;-78
2023/11/23 06:47:28;;;;;;;34.55;20.45;;;7.80;99.90;;;7.18;100.00;100526.91;5014595;28;20036;-79
2023/11/23 06:49:55;;;;;;;33.22;20.60;;;7.80;99.90;;;7.26;100.00;100534.06;5031378;28;20038;-77
2023/11/23 06:52:21;;;;;;;34.17;21.60;;;7.90;99.90;;;7.29;100.00;100554.53;5020505;28;20034;-79
2023/11/23 06:54:48;;;;;;;35.13;20.48;;;8.00;99.90;;;7.38;100.00;100582.34;5015889;28;20045;-77
2023/11/23 06:57:14;;;;;;;32.72;19.77;;;8.00;99.90;;;7.40;100.00;100589.28;5018057;28;20037;-77
2023/11/23 06:59:40;;;;;;;37.95;20.48;;;8.10;99.90;;;7.47;100.00;100592.88;5013808;28;20041;-78
2023/11/23 07:02:06;;;;;;;35.50;19.02;;;8.20;99.90;;;7.55;100.00;100601.91;5022361;28;20434;-78
2023/11/23 07:04:32;;;;;;;36.75;20.67;;;8.20;99.90;;;7.53;100.00;100595.81;5018474;28;20040;-78
2023/11/23 07:06:58;;;;;;;36.85;20.60;;;8.20;99.90;;;7.55;100.00;100591.88;5015381;28;20037;-78
2023/11/23 07:09:23;;;;;;;34.33;20.58;;;8.30;99.90;;;7.52;100.00;100589.56;5018449;28;20041;-77
2023/11/23 07:11:53;;;;;;;37.45;20.10;;;8.30;99.90;;;7.60;100.00;100575.84;5022904;28;20044;-77
2023/11/23 07:14:21;;;;;;;36.25;20.70;;;8.30;99.90;;;7.62;100.00;100543.06;5012373;28;20042;-79
2023/11/23 07:16:51;;;;;;;33.53;20.50;;;8.30;99.90;;;7.59;100.00;100528.00;5013802;28;20091;-77
2023/11/23 07:19:19;;;;;;;35.75;20.52;;;8.30;99.90;;;7.62;100.00;100535.75;5019704;28;20046;-76
2023/11/23 07:21:45;;;;;;;35.13;20.83;;;8.30;99.90;;;7.62;100.00;100508.59;5018190;28;20055;-76
2023/11/23 07:24:10;;;;;;;36.97;20.50;;;8.40;99.90;;;7.61;100.00;100503.38;5021113;28;20095;-75
2023/11/23 07:26:36;;;;;;;36.30;19.92;;;8.30;99.90;;;7.64;100.00;100486.69;5016897;28;20489;-76
2023/11/23 07:29:03;;;;;;;33.17;19.20;;;8.30;99.90;;;7.62;100.00;100476.00;5014887;28;20108;-76
2023/11/23 07:31:28;;;;;;;35.83;18.52;;;8.40;99.90;;;7.72;100.00;100469.38;5042128;28;20041;-77
2023/11/23 07:33:54;;;;;;;33.65;19.55;;;8.40;99.90;;;7.65;100.00;100458.50;5028662;28;20038;-78
2023/11/23 07:36:21;;;;;;;32.65;18.55;;;8.40;99.90;;;7.68;100.00;100449.09;5027648;28;20036;-78
2023/11/23 07:38:48;;;;;;;31.80;18.65;;;8.40;99.90;;;7.73;100.00;100450.16;5029275;28;20049;-77
2023/11/23 07:41:14;;;;;;;29.25;17.30;;;8.40;99.90;;;7.76;100.00;100444.31;5028088;28;20176;-77
2023/11/23 07:43:39;;;;;;;28.20;16.40;;;8.50;99.90;;;7.81;100.00;100419.28;5017569;28;20037;-78
2023/11/23 07:46:06;;;;;;;28.00;17.48;;;8.50;99.90;;;7.80;100.00;100406.75;5029109;28;20099;-76
2023/11/23 07:48:31;;;;;;;30.27;16.85;;;8.50;99.90;;;7.81;100.00;100416.56;5028092;28;20120;-76
2023/11/23 07:50:57;;;;;;;27.70;16.30;;;8.50;99.90;;;7.89;100.00;100431.84;5027122;28;20048;-76
2023/11/23 07:53:26;;;;;;;27.65;15.38;;;8.60;99.90;;;7.97;100.00;100414.53;5030391;28;20098;-76
2023/11/23 07:55:52;;;;;;;23.77;15.10;;;8.70;99.90;;;8.02;100.00;100425.59;5026276;28;20037;-78
2023/11/23 07:58:18;;;;;;;25.15;14.57;;;8.70;99.90;;;7.99;100.00;100420.59;5027668;28;20037;-78
2023/11/23 08:00:43;;;;;;;24.42;14.45;;;8.70;99.90;;;8.05;100.00;100423.31;5028243;28;20358;-76
2023/11/23 08:03:10;;;;;;;23.67;15.07;;;8.70;99.90;;;8.10;100.00;100444.44;5023387;28;20072;-78
2023/11/23 08:05:36;;;;;;;25.13;15.70;;;8.80;99.90;;;8.19;100.00;100466.81;5027706;28;20550;-76
2023/11/23 08:08:03;;;;;;;21.88;14.10;;;8.90;99.90;;;8.25;100.00;100476.88;5026369;28;20033;-76
2023/11/23 08:10:29;;;;;;;22.52;14.20;;;8.90;99.90;;;8.31;100.00;100486.09;5025575;28;20524;-77
2023/11/23 08:12:55;;;;;;;22.45;13.20;;;9.00;99.90;;;8.32;100.00;100496.72;5020656;28;20094;-77
2023/11/23 08:15:21;;;;;;;21.35;13.23;;;9.00;99.90;;;8.38;100.00;100516.84;5029661;28;20045;-76
2023/11/23 08:17:47;;;;;;;19.20;12.32;;;9.00;99.90;;;8.36;100.00;100518.91;5012845;28;20477;-77
2023/11/23 08:20:13;;;;;;;21.27;12.52;;;9.10;99.90;;;8.48;100.00;100532.75;5012829;28;20084;-77
2023/11/23 08:22:40;;;;;;;17.92;11.70;;;9.20;99.90;;;8.56;100.00;100554.34;5017023;28;20478;-77
2023/11/23 08:25:06;;;;;;;19.70;11.93;;;9.20;99.90;;;8.56;100.00;100577.97;5017624;28;20077;-77
2023/11/23 08:27:32;;;;;;;17.02;11.38;;;9.20;99.90;;;8.63;100.00;100585.13;5026114;28;20083;-77
2023/11/23 08:29:58;;;;;;;17.83;10.98;;;9.30;99.90;;;8.72;100.00;100588.47;5027810;28;20041;-76
2023/11/23 08:32:23;;;;;;;17.42;11.45;;;9.40;99.90;;;8.82;100.00;100601.66;5023410;28;20064;-77
2023/11/23 08:34:49;;;;;;;16.08;10.70;;;9.50;99.90;;;8.88;100.00;100630.75;5025134;28;20045;-76
2023/11/23 08:37:16;;;;;;;17.75;10.80;;;9.50;99.90;;;8.94;100.00;100650.88;5025024;28;20033;-76
2023/11/23 08:39:41;;;;;;;20.38;11.93;;;9.50;99.90;;;8.88;100.00;100652.53;5026013;28;20543;-77
2023/11/23 08:42:08;;;;;;;17.92;12.77;;;9.50;99.90;;;8.92;100.00;100647.53;5026198;28;20033;-76
2023/11/23 08:44:35;;;;;;;17.73;12.15;;;9.50;99.90;;;8.96;100.00;100648.78;5023635;28;20045;-77
2023/11/23 08:47:00;;;;;;;18.65;12.75;;;9.60;99.90;;;8.96;100.00;100648.78;5037100;28;20037;-76
2023/11/23 08:49:27;;;;;;;18.55;12.43;;;9.60;99.90;;;8.90;100.00;100639.59;5027739;28;20048;-77
2023/11/23 08:51:52;;;;;;;21.90;13.05;;;9.60;99.90;;;8.95;100.00;100641.66;5025694;28;20088;-77
2023/11/23 08:54:18;;;;;;;21.73;14.15;;;9.60;99.90;;;8.98;100.00;100618.66;5026966;28;20034;-77
2023/11/23 08:56:46;;;;;;;22.30;14.20;;;9.60;99.90;;;8.95;100.00;100617.19;5025896;28;20037;-77
2023/11/23 08:59:12;;;;;;;22.60;14.73;;;9.60;99.90;;;8.95;100.00;100587.25;5027095;28;20385;-77
2023/11/23 09:01:38;;;;;;;24.08;14.93;;;9.60;99.90;;;8.96;100.00;100588.94;5042542;28;20052;-78
2023/11/23 09:04:04;;;;;;;22.10;14.60;;;9.60;99.90;;;8.99;100.00;100563.19;5032841;28;20507;-78
2023/11/23 09:06:30;;;;;;;21.92;14.63;;;9.60;99.90;;;8.99;100.00;100566.75;5028659;28;21468;-77
2023/11/23 09:09:00;;;;;;;22.40;15.15;;;9.60;99.90;;;9.00;100.00;100562.97;5027142;28;20037;-77
2023/11/23 09:11:26;;;;;;;25.52;15.20;;;9.60;99.90;;;9.03;100.00;100546.25;5029377;28;20041;-77
2023/11/23 09:13:52;;;;;;;25.98;15.02;;;9.70;99.90;;;9.09;100.00;100574.50;5029434;28;20084;-77
2023/11/23 09:16:18;;;;;;;20.35;13.60;;;9.70;99.90;;;9.18;100.00;100553.34;5024060;28;20041;-77
2023/11/23 09:18:45;;;;;;;22.48;13.82;;;9.80;99.90;;;9.23;100.00;100574.50;5026868;28;20043;-77
2023/11/23 09:21:11;;;;;;;20.50;13.50;;;9.80;99.90;;;9.24;100.00;100585.16;5027836;28;20393;-77
2023/11/23 09:23:37;;;;;;;20.23;13.43;;;9.90;99.90;;;9.30;100.00;100584.34;5023142;28;20138;-77
2023/11/23 09:26:04;;;;;;;19.05;12.50;;;9.90;99.90;;;9.31;100.00;100599.66;5024609;28;20092;-77
2023/11/23 09:28:30;;;;;;;17.97;13.00;;;9.90;99.90;;;9.40;100.00;100588.53;5024206;28;20090;-78
2023/11/23 09:30:56;;;;;;;18.15;12.73;;;10.00;99.90;;;9.46;100.00;100595.84;5012119;28;20056;-76
2023/11/23 09:33:22;;;;;;;20.58;12.98;;;10.00;99.90;;;9.43;100.00;100594.41;5015741;28;20057;-77
2023/11/23 09:35:48;;;;;;;23.02;13.18;;;10.10;99.90;;;9.46;100.00;100593.13;5032634;28;20048;-77
2023/11/23 09:38:14;;;;;;;19.70;13.23;;;10.10;99.90;;;9.50;100.00;100581.59;5033278;28;20087;-77
2023/11/23 09:40:40;;;;;;;19.80;12.55;;;10.10;99.90;;;9.52;100.00;100584.09;5015851;28;20044;-79
2023/11/23 09:43:09;;;;;;;17.67;12.77;;;10.10;99.90;;;9.54;100.00;100592.91;5015989;28;20045;-77
2023/11/23 09:45:36;;;;;;;21.05;12.70;;;10.10;99.90;;;9.55;100.00;100586.44;5016482;28;20037;-77
2023/11/23 09:48:04;;;;;;;20.02;13.05;;;10.20;99.90;;;9.53;100.00;100599.41;5030126;28;21023;-77
2023/11/23 09:50:30;;;;;;;20.08;12.65;;;10.20;99.90;;;9.61;100.00;100611.97;5019338;28;20033;-76
2023/11/23 09:52:57;;;;;;;18.30;13.25;;;10.20;99.90;;;9.61;100.00;100582.00;5016290;28;20041;-76
2023/11/23 09:55:25;;;;;;;19.15;12.65;;;10.20;99.90;;;9.63;100.00;100578.03;5015638;28;20053;-75
2023/11/23 09:57:52;;;;;;;21.55;12.23;;;10.20;99.90;;;9.60;100.00;100561.25;5039440;28;20050;-76
2023/11/23 10:00:18;;;;;;;16.15;11.95;;;10.20;99.90;;;9.64;100.00;100579.69;5020468;28;20041;-76
2023/11/23 10:02:49;;;;;;;19.23;12.38;;;10.30;99.90;;;9.68;100.00;100579.28;5014935;28;20057;-75